sensor_id;sensor_type;location;lat;lon;timestamp;P1;durP1;ratioP1;P2;durP2;ratioP2
21569;SDS011;57598;50.888;4.746;2023-12-22T00:00:01;46.95;;;42.35;;
21569;SDS011;57598;50.888;4.746;2023-12-22T00:02:28;49.05;;;43.88;;
21569;SDS011;57598;50.888;4.746;2023-12-22T00:04:55;49.05;;;43.42;;
21569;SDS011;57598;50.888;4.746;2023-12-22T00:07:23;45.50;;;42.03;;
21569;SDS011;57598;50.888;4.746;2023-12-22T00:09:50;47.40;;;42.55;;
21569;SDS011;57598;50.888;4.746;2023-12-22T00:12:19;46.88;;;40.22;;
21569;SDS011;57598;50.888;4.746;2023-12-22T00:14:46;45.13;;;40.63;;
21569;SDS011;57598;50.888;4.746;2023-12-22T00:17:13;45.40;;;39.85;;
21569;SDS011;57598;50.888;4.746;2023-12-22T00:19:40;43.45;;;39.13;;
21569;SDS011;57598;50.888;4.746;2023-12-22T00:22:07;41.70;;;38.38;;
21569;SDS011;57598;50.888;4.746;2023-12-22T00:24:35;43.25;;;39.08;;
21569;SDS011;57598;50.888;4.746;2023-12-22T00:27:02;41.85;;;37.88;;
21569;SDS011;57598;50.888;4.746;2023-12-22T00:29:31;41.83;;;38.58;;
21569;SDS011;57598;50.888;4.746;2023-12-22T00:32:00;43.15;;;39.50;;
21569;SDS011;57598;50.888;4.746;2023-12-22T00:34:28;44.65;;;40.65;;
21569;SDS011;57598;50.888;4.746;2023-12-22T00:36:55;42.08;;;38.40;;
21569;SDS011;57598;50.888;4.746;2023-12-22T00:39:22;42.95;;;39.13;;
21569;SDS011;57598;50.888;4.746;2023-12-22T00:41:49;42.13;;;38.40;;
21569;SDS011;57598;50.888;4.746;2023-12-22T00:44:17;41.88;;;38.17;;
21569;SDS011;57598;50.888;4.746;2023-12-22T00:46:45;41.65;;;38.08;;
21569;SDS011;57598;50.888;4.746;2023-12-22T00:49:13;41.13;;;38.08;;
21569;SDS011;57598;50.888;4.746;2023-12-22T00:51:40;41.75;;;38.72;;
21569;SDS011;57598;50.888;4.746;2023-12-22T00:54:07;39.60;;;36.72;;
21569;SDS011;57598;50.888;4.746;2023-12-22T00:56:34;41.22;;;38.10;;
21569;SDS011;57598;50.888;4.746;2023-12-22T00:59:02;40.40;;;37.45;;
21569;SDS011;57598;50.888;4.746;2023-12-22T01:01:29;42.15;;;38.78;;
21569;SDS011;57598;50.888;4.746;2023-12-22T01:03:58;42.60;;;39.13;;
21569;SDS011;57598;50.888;4.746;2023-12-22T01:06:25;43.72;;;40.10;;
21569;SDS011;57598;50.888;4.746;2023-12-22T01:08:52;44.42;;;40.97;;
21569;SDS011;57598;50.888;4.746;2023-12-22T01:11:19;47.60;;;42.90;;
21569;SDS011;57598;50.888;4.746;2023-12-22T01:13:46;45.95;;;42.03;;
21569;SDS011;57598;50.888;4.746;2023-12-22T01:16:14;49.65;;;45.17;;
21569;SDS011;57598;50.888;4.746;2023-12-22T01:18:43;48.30;;;43.85;;
21569;SDS011;57598;50.888;4.746;2023-12-22T01:21:11;51.83;;;46.78;;
21569;SDS011;57598;50.888;4.746;2023-12-22T01:23:39;48.35;;;44.50;;
21569;SDS011;57598;50.888;4.746;2023-12-22T01:26:06;53.05;;;48.47;;
21569;SDS011;57598;50.888;4.746;2023-12-22T01:28:33;56.05;;;50.85;;
21569;SDS011;57598;50.888;4.746;2023-12-22T01:31:00;56.70;;;52.03;;
21569;SDS011;57598;50.888;4.746;2023-12-22T01:33:28;60.75;;;55.30;;
21569;SDS011;57598;50.888;4.746;2023-12-22T01:35:55;56.97;;;52.05;;
21569;SDS011;57598;50.888;4.746;2023-12-22T01:38:24;55.83;;;50.53;;
21569;SDS011;57598;50.888;4.746;2023-12-22T01:40:51;56.78;;;52.28;;
21569;SDS011;57598;50.888;4.746;2023-12-22T01:43:18;57.60;;;52.20;;
21569;SDS011;57598;50.888;4.746;2023-12-22T01:45:47;52.35;;;48.25;;
21569;SDS011;57598;50.888;4.746;2023-12-22T01:48:14;51.97;;;47.47;;
21569;SDS011;57598;50.888;4.746;2023-12-22T01:50:42;50.70;;;46.28;;
21569;SDS011;57598;50.888;4.746;2023-12-22T01:53:09;49.95;;;46.17;;
21569;SDS011;57598;50.888;4.746;2023-12-22T01:55:38;51.38;;;46.47;;
21569;SDS011;57598;50.888;4.746;2023-12-22T01:58:05;48.33;;;44.47;;
21569;SDS011;57598;50.888;4.746;2023-12-22T02:00:33;48.08;;;44.25;;
21569;SDS011;57598;50.888;4.746;2023-12-22T02:03:00;48.95;;;45.08;;
21569;SDS011;57598;50.888;4.746;2023-12-22T02:05:28;50.67;;;46.17;;
21569;SDS011;57598;50.888;4.746;2023-12-22T02:07:55;48.97;;;45.10;;
21569;SDS011;57598;50.888;4.746;2023-12-22T02:10:22;49.15;;;44.65;;
21569;SDS011;57598;50.888;4.746;2023-12-22T02:12:51;48.85;;;45.00;;
21569;SDS011;57598;50.888;4.746;2023-12-22T02:15:18;46.03;;;42.58;;
21569;SDS011;57598;50.888;4.746;2023-12-22T02:17:48;47.80;;;43.55;;
21569;SDS011;57598;50.888;4.746;2023-12-22T02:20:17;48.13;;;43.80;;
21569;SDS011;57598;50.888;4.746;2023-12-22T02:22:46;48.92;;;44.92;;
21569;SDS011;57598;50.888;4.746;2023-12-22T02:25:17;49.22;;;45.40;;
21569;SDS011;57598;50.888;4.746;2023-12-22T02:27:46;44.53;;;40.83;;
21569;SDS011;57598;50.888;4.746;2023-12-22T02:30:16;47.25;;;42.40;;
21569;SDS011;57598;50.888;4.746;2023-12-22T02:32:47;44.65;;;41.08;;
21569;SDS011;57598;50.888;4.746;2023-12-22T02:35:16;44.65;;;41.00;;
21569;SDS011;57598;50.888;4.746;2023-12-22T02:37:46;47.83;;;43.47;;
21569;SDS011;57598;50.888;4.746;2023-12-22T02:40:14;47.22;;;42.63;;
21569;SDS011;57598;50.888;4.746;2023-12-22T02:42:42;47.00;;;42.63;;
21569;SDS011;57598;50.888;4.746;2023-12-22T02:45:13;46.60;;;42.63;;
21569;SDS011;57598;50.888;4.746;2023-12-22T02:47:40;48.45;;;43.72;;
21569;SDS011;57598;50.888;4.746;2023-12-22T02:50:08;45.33;;;41.70;;
21569;SDS011;57598;50.888;4.746;2023-12-22T02:52:35;46.33;;;42.15;;
21569;SDS011;57598;50.888;4.746;2023-12-22T02:55:05;46.38;;;42.42;;
21569;SDS011;57598;50.888;4.746;2023-12-22T02:57:32;44.00;;;40.58;;
21569;SDS011;57598;50.888;4.746;2023-12-22T02:59:59;45.85;;;41.78;;
21569;SDS011;57598;50.888;4.746;2023-12-22T03:02:27;44.67;;;41.13;;
21569;SDS011;57598;50.888;4.746;2023-12-22T03:04:54;43.50;;;39.53;;
21569;SDS011;57598;50.888;4.746;2023-12-22T03:07:21;53.35;;;40.47;;
21569;SDS011;57598;50.888;4.746;2023-12-22T03:09:48;42.65;;;39.08;;
21569;SDS011;57598;50.888;4.746;2023-12-22T03:12:17;42.92;;;39.10;;
21569;SDS011;57598;50.888;4.746;2023-12-22T03:14:44;39.33;;;36.63;;
21569;SDS011;57598;50.888;4.746;2023-12-22T03:17:11;40.65;;;37.22;;
21569;SDS011;57598;50.888;4.746;2023-12-22T03:19:39;41.10;;;37.65;;
21569;SDS011;57598;50.888;4.746;2023-12-22T03:22:07;40.05;;;37.15;;
21569;SDS011;57598;50.888;4.746;2023-12-22T03:24:34;39.78;;;36.25;;
21569;SDS011;57598;50.888;4.746;2023-12-22T03:27:02;40.83;;;37.03;;
21569;SDS011;57598;50.888;4.746;2023-12-22T03:29:31;38.65;;;35.95;;
21569;SDS011;57598;50.888;4.746;2023-12-22T03:31:58;39.42;;;36.53;;
21569;SDS011;57598;50.888;4.746;2023-12-22T03:34:25;42.72;;;38.70;;
21569;SDS011;57598;50.888;4.746;2023-12-22T03:36:52;40.85;;;37.88;;
21569;SDS011;57598;50.888;4.746;2023-12-22T03:39:19;41.65;;;38.75;;
21569;SDS011;57598;50.888;4.746;2023-12-22T03:41:47;43.90;;;39.45;;
21569;SDS011;57598;50.888;4.746;2023-12-22T03:44:14;44.80;;;40.80;;
21569;SDS011;57598;50.888;4.746;2023-12-22T03:46:43;44.00;;;40.53;;
21569;SDS011;57598;50.888;4.746;2023-12-22T03:49:10;44.63;;;40.83;;
21569;SDS011;57598;50.888;4.746;2023-12-22T03:51:38;49.05;;;44.55;;
21569;SDS011;57598;50.888;4.746;2023-12-22T03:54:06;47.17;;;43.53;;
21569;SDS011;57598;50.888;4.746;2023-12-22T03:56:35;49.15;;;43.88;;
21569;SDS011;57598;50.888;4.746;2023-12-22T03:59:02;50.63;;;45.85;;
21569;SDS011;57598;50.888;4.746;2023-12-22T04:01:29;51.83;;;47.03;;
21569;SDS011;57598;50.888;4.746;2023-12-22T04:03:58;56.95;;;50.85;;
21569;SDS011;57598;50.888;4.746;2023-12-22T04:06:25;54.72;;;49.55;;
21569;SDS011;57598;50.888;4.746;2023-12-22T04:08:54;52.95;;;47.80;;
21569;SDS011;57598;50.888;4.746;2023-12-22T04:11:21;54.30;;;49.25;;
21569;SDS011;57598;50.888;4.746;2023-12-22T04:13:48;52.55;;;48.65;;
21569;SDS011;57598;50.888;4.746;2023-12-22T04:16:15;55.35;;;50.75;;
21569;SDS011;57598;50.888;4.746;2023-12-22T04:18:43;53.25;;;49.25;;
21569;SDS011;57598;50.888;4.746;2023-12-22T04:21:11;54.78;;;50.15;;
21569;SDS011;57598;50.888;4.746;2023-12-22T04:23:38;55.97;;;50.63;;
21569;SDS011;57598;50.888;4.746;2023-12-22T04:26:06;53.85;;;49.47;;
21569;SDS011;57598;50.888;4.746;2023-12-22T04:28:33;52.53;;;48.13;;
21569;SDS011;57598;50.888;4.746;2023-12-22T04:31:00;54.20;;;49.58;;
21569;SDS011;57598;50.888;4.746;2023-12-22T04:33:26;52.58;;;48.30;;
21569;SDS011;57598;50.888;4.746;2023-12-22T04:35:54;50.58;;;46.67;;
21569;SDS011;57598;50.888;4.746;2023-12-22T04:38:23;51.58;;;47.33;;
21569;SDS011;57598;50.888;4.746;2023-12-22T04:40:50;55.65;;;50.33;;
21569;SDS011;57598;50.888;4.746;2023-12-22T04:43:17;54.97;;;50.15;;
21569;SDS011;57598;50.888;4.746;2023-12-22T04:45:45;56.90;;;51.35;;
21569;SDS011;57598;50.888;4.746;2023-12-22T04:48:12;56.33;;;51.92;;
21569;SDS011;57598;50.888;4.746;2023-12-22T04:50:39;56.58;;;52.25;;
21569;SDS011;57598;50.888;4.746;2023-12-22T04:53:07;62.50;;;55.90;;
21569;SDS011;57598;50.888;4.746;2023-12-22T04:55:35;57.30;;;53.00;;
21569;SDS011;57598;50.888;4.746;2023-12-22T04:58:03;57.38;;;52.83;;
21569;SDS011;57598;50.888;4.746;2023-12-22T05:00:30;59.67;;;54.50;;
21569;SDS011;57598;50.888;4.746;2023-12-22T05:02:57;59.80;;;55.33;;
21569;SDS011;57598;50.888;4.746;2023-12-22T05:05:24;65.25;;;58.90;;
21569;SDS011;57598;50.888;4.746;2023-12-22T05:07:52;63.25;;;57.83;;
21569;SDS011;57598;50.888;4.746;2023-12-22T05:10:19;61.85;;;55.13;;
21569;SDS011;57598;50.888;4.746;2023-12-22T05:12:48;63.13;;;57.83;;
21569;SDS011;57598;50.888;4.746;2023-12-22T05:15:15;65.90;;;60.22;;
21569;SDS011;57598;50.888;4.746;2023-12-22T05:17:42;62.78;;;57.20;;
21569;SDS011;57598;50.888;4.746;2023-12-22T05:20:10;67.35;;;61.17;;
21569;SDS011;57598;50.888;4.746;2023-12-22T05:22:37;66.25;;;60.42;;
21569;SDS011;57598;50.888;4.746;2023-12-22T05:25:05;62.80;;;57.45;;
21569;SDS011;57598;50.888;4.746;2023-12-22T05:27:32;66.30;;;60.33;;
21569;SDS011;57598;50.888;4.746;2023-12-22T05:30:03;66.53;;;60.88;;
21569;SDS011;57598;50.888;4.746;2023-12-22T05:32:31;65.38;;;59.20;;
21569;SDS011;57598;50.888;4.746;2023-12-22T05:34:58;66.35;;;61.35;;
21569;SDS011;57598;50.888;4.746;2023-12-22T05:37:25;63.38;;;57.28;;
21569;SDS011;57598;50.888;4.746;2023-12-22T05:39:53;58.63;;;53.30;;
21569;SDS011;57598;50.888;4.746;2023-12-22T05:42:20;63.92;;;58.13;;
21569;SDS011;57598;50.888;4.746;2023-12-22T05:44:48;57.35;;;52.60;;
21569;SDS011;57598;50.888;4.746;2023-12-22T05:47:17;68.00;;;57.53;;
21569;SDS011;57598;50.888;4.746;2023-12-22T05:49:44;57.60;;;51.75;;
21569;SDS011;57598;50.888;4.746;2023-12-22T05:52:11;55.65;;;50.75;;
21569;SDS011;57598;50.888;4.746;2023-12-22T05:54:39;54.20;;;49.47;;
21569;SDS011;57598;50.888;4.746;2023-12-22T05:57:07;53.15;;;48.33;;
21569;SDS011;57598;50.888;4.746;2023-12-22T05:59:34;53.63;;;48.40;;
21569;SDS011;57598;50.888;4.746;2023-12-22T06:02:01;51.53;;;47.03;;
21569;SDS011;57598;50.888;4.746;2023-12-22T06:04:30;53.20;;;47.90;;
21569;SDS011;57598;50.888;4.746;2023-12-22T06:06:57;48.78;;;44.45;;
21569;SDS011;57598;50.888;4.746;2023-12-22T06:09:25;47.58;;;43.90;;
21569;SDS011;57598;50.888;4.746;2023-12-22T06:11:52;49.92;;;45.17;;
21569;SDS011;57598;50.888;4.746;2023-12-22T06:14:19;47.47;;;43.45;;
21569;SDS011;57598;50.888;4.746;2023-12-22T06:16:46;45.15;;;41.60;;
21569;SDS011;57598;50.888;4.746;2023-12-22T06:19:14;47.53;;;44.15;;
21569;SDS011;57598;50.888;4.746;2023-12-22T06:21:43;48.80;;;44.70;;
21569;SDS011;57598;50.888;4.746;2023-12-22T06:24:10;46.97;;;43.90;;
21569;SDS011;57598;50.888;4.746;2023-12-22T06:26:37;48.20;;;43.33;;
21569;SDS011;57598;50.888;4.746;2023-12-22T06:29:04;47.55;;;44.35;;
21569;SDS011;57598;50.888;4.746;2023-12-22T06:31:32;53.67;;;49.25;;
21569;SDS011;57598;50.888;4.746;2023-12-22T06:33:59;54.47;;;48.55;;
21569;SDS011;57598;50.888;4.746;2023-12-22T06:36:27;53.05;;;49.25;;
21569;SDS011;57598;50.888;4.746;2023-12-22T06:38:57;54.25;;;50.22;;
21569;SDS011;57598;50.888;4.746;2023-12-22T06:41:25;55.55;;;50.35;;
21569;SDS011;57598;50.888;4.746;2023-12-22T06:43:52;56.40;;;50.55;;
21569;SDS011;57598;50.888;4.746;2023-12-22T06:46:20;58.70;;;54.30;;
21569;SDS011;57598;50.888;4.746;2023-12-22T06:48:48;58.65;;;53.63;;
21569;SDS011;57598;50.888;4.746;2023-12-22T06:51:19;59.70;;;54.92;;
21569;SDS011;57598;50.888;4.746;2023-12-22T06:53:46;65.88;;;58.85;;
21569;SDS011;57598;50.888;4.746;2023-12-22T06:56:18;59.53;;;54.22;;
21569;SDS011;57598;50.888;4.746;2023-12-22T06:58:46;54.42;;;50.72;;
21569;SDS011;57598;50.888;4.746;2023-12-22T07:01:20;56.17;;;51.95;;
21569;SDS011;57598;50.888;4.746;2023-12-22T07:03:47;55.10;;;51.13;;
21569;SDS011;57598;50.888;4.746;2023-12-22T07:06:15;57.45;;;52.95;;
21569;SDS011;57598;50.888;4.746;2023-12-22T07:08:42;59.05;;;53.88;;
21569;SDS011;57598;50.888;4.746;2023-12-22T07:11:25;61.60;;;56.72;;
21569;SDS011;57598;50.888;4.746;2023-12-22T07:13:53;56.60;;;52.58;;
21569;SDS011;57598;50.888;4.746;2023-12-22T07:16:20;75.60;;;69.15;;
21569;SDS011;57598;50.888;4.746;2023-12-22T07:18:48;60.53;;;56.22;;
21569;SDS011;57598;50.888;4.746;2023-12-22T07:21:16;64.78;;;60.28;;
21569;SDS011;57598;50.888;4.746;2023-12-22T07:23:44;74.35;;;68.50;;
21569;SDS011;57598;50.888;4.746;2023-12-22T07:26:11;77.28;;;71.47;;
21569;SDS011;57598;50.888;4.746;2023-12-22T07:28:40;145.38;;;136.98;;
21569;SDS011;57598;50.888;4.746;2023-12-22T07:31:07;109.70;;;101.63;;
21569;SDS011;57598;50.888;4.746;2023-12-22T07:33:35;180.63;;;169.18;;
21569;SDS011;57598;50.888;4.746;2023-12-22T07:36:02;239.35;;;225.93;;
21569;SDS011;57598;50.888;4.746;2023-12-22T07:38:29;236.48;;;223.60;;
21569;SDS011;57598;50.888;4.746;2023-12-22T07:40:56;169.93;;;158.02;;
21569;SDS011;57598;50.888;4.746;2023-12-22T07:43:24;230.07;;;216.07;;
21569;SDS011;57598;50.888;4.746;2023-12-22T07:45:53;245.73;;;231.90;;
21569;SDS011;57598;50.888;4.746;2023-12-22T07:48:20;247.30;;;233.70;;
21569;SDS011;57598;50.888;4.746;2023-12-22T07:50:49;207.13;;;195.00;;
21569;SDS011;57598;50.888;4.746;2023-12-22T07:53:16;186.77;;;175.63;;
21569;SDS011;57598;50.888;4.746;2023-12-22T07:55:43;163.93;;;153.68;;
21569;SDS011;57598;50.888;4.746;2023-12-22T07:58:11;149.18;;;139.32;;
21569;SDS011;57598;50.888;4.746;2023-12-22T08:00:40;121.38;;;113.15;;
21569;SDS011;57598;50.888;4.746;2023-12-22T08:03:09;109.15;;;101.30;;
21569;SDS011;57598;50.888;4.746;2023-12-22T08:05:36;145.60;;;135.75;;
21569;SDS011;57598;50.888;4.746;2023-12-22T08:08:03;137.20;;;127.82;;
21569;SDS011;57598;50.888;4.746;2023-12-22T08:10:31;122.97;;;114.35;;
21569;SDS011;57598;50.888;4.746;2023-12-22T08:12:58;103.22;;;95.80;;
21569;SDS011;57598;50.888;4.746;2023-12-22T08:15:25;93.18;;;86.28;;
21569;SDS011;57598;50.888;4.746;2023-12-22T08:17:52;94.32;;;87.13;;
21569;SDS011;57598;50.888;4.746;2023-12-22T08:20:21;89.05;;;81.88;;
21569;SDS011;57598;50.888;4.746;2023-12-22T08:22:49;88.63;;;81.60;;
21569;SDS011;57598;50.888;4.746;2023-12-22T08:25:17;86.30;;;79.40;;
21569;SDS011;57598;50.888;4.746;2023-12-22T08:27:45;84.85;;;78.05;;
21569;SDS011;57598;50.888;4.746;2023-12-22T08:30:15;87.53;;;80.43;;
21569;SDS011;57598;50.888;4.746;2023-12-22T08:32:42;89.65;;;82.97;;
21569;SDS011;57598;50.888;4.746;2023-12-22T08:35:10;86.68;;;79.68;;
21569;SDS011;57598;50.888;4.746;2023-12-22T08:37:38;92.32;;;84.80;;
21569;SDS011;57598;50.888;4.746;2023-12-22T08:40:06;88.22;;;81.43;;
21569;SDS011;57598;50.888;4.746;2023-12-22T08:42:34;91.43;;;84.13;;
21569;SDS011;57598;50.888;4.746;2023-12-22T08:45:01;87.30;;;80.28;;
21569;SDS011;57598;50.888;4.746;2023-12-22T08:47:30;87.13;;;80.05;;
21569;SDS011;57598;50.888;4.746;2023-12-22T08:49:57;91.68;;;84.35;;
21569;SDS011;57598;50.888;4.746;2023-12-22T08:52:25;85.00;;;78.07;;
21569;SDS011;57598;50.888;4.746;2023-12-22T08:54:53;84.97;;;77.45;;
21569;SDS011;57598;50.888;4.746;2023-12-22T08:57:21;184.85;;;172.93;;
21569;SDS011;57598;50.888;4.746;2023-12-22T08:59:48;198.60;;;186.13;;
21569;SDS011;57598;50.888;4.746;2023-12-22T09:02:15;202.65;;;190.02;;
21569;SDS011;57598;50.888;4.746;2023-12-22T09:04:42;269.02;;;253.50;;
21569;SDS011;57598;50.888;4.746;2023-12-22T09:07:10;288.23;;;271.33;;
21569;SDS011;57598;50.888;4.746;2023-12-22T09:09:37;201.32;;;188.43;;
21569;SDS011;57598;50.888;4.746;2023-12-22T09:12:06;196.75;;;183.70;;
21569;SDS011;57598;50.888;4.746;2023-12-22T09:14:34;208.32;;;194.98;;
21569;SDS011;57598;50.888;4.746;2023-12-22T09:17:01;273.15;;;255.45;;
21569;SDS011;57598;50.888;4.746;2023-12-22T09:19:28;276.15;;;258.60;;
21569;SDS011;57598;50.888;4.746;2023-12-22T09:21:56;274.13;;;255.85;;
21569;SDS011;57598;50.888;4.746;2023-12-22T09:24:23;273.52;;;255.90;;
21569;SDS011;57598;50.888;4.746;2023-12-22T09:26:50;276.15;;;258.20;;
21569;SDS011;57598;50.888;4.746;2023-12-22T09:29:19;278.67;;;260.90;;
21569;SDS011;57598;50.888;4.746;2023-12-22T09:31:47;281.77;;;263.98;;
21569;SDS011;57598;50.888;4.746;2023-12-22T09:34:15;280.15;;;262.85;;
21569;SDS011;57598;50.888;4.746;2023-12-22T09:36:42;284.63;;;266.40;;
21569;SDS011;57598;50.888;4.746;2023-12-22T09:39:09;277.73;;;259.92;;
21569;SDS011;57598;50.888;4.746;2023-12-22T09:41:42;300.27;;;279.98;;
21569;SDS011;57598;50.888;4.746;2023-12-22T09:44:10;285.45;;;266.05;;
21569;SDS011;57598;50.888;4.746;2023-12-22T09:46:39;270.30;;;251.10;;
21569;SDS011;57598;50.888;4.746;2023-12-22T09:49:06;259.42;;;239.70;;
21569;SDS011;57598;50.888;4.746;2023-12-22T09:51:34;253.25;;;235.15;;
21569;SDS011;57598;50.888;4.746;2023-12-22T09:54:03;239.50;;;222.60;;
21569;SDS011;57598;50.888;4.746;2023-12-22T09:56:30;243.23;;;224.77;;
21569;SDS011;57598;50.888;4.746;2023-12-22T09:58:58;291.88;;;271.58;;
21569;SDS011;57598;50.888;4.746;2023-12-22T10:01:26;302.02;;;281.23;;
21569;SDS011;57598;50.888;4.746;2023-12-22T10:03:56;292.88;;;272.77;;
21569;SDS011;57598;50.888;4.746;2023-12-22T10:06:23;273.80;;;254.48;;
21569;SDS011;57598;50.888;4.746;2023-12-22T10:08:50;265.23;;;246.82;;
21569;SDS011;57598;50.888;4.746;2023-12-22T10:11:18;281.88;;;262.08;;
21569;SDS011;57598;50.888;4.746;2023-12-22T10:13:46;281.30;;;262.05;;
21569;SDS011;57598;50.888;4.746;2023-12-22T10:16:15;285.30;;;265.90;;
21569;SDS011;57598;50.888;4.746;2023-12-22T10:18:42;307.05;;;286.50;;
21569;SDS011;57598;50.888;4.746;2023-12-22T10:21:11;330.88;;;309.25;;
21569;SDS011;57598;50.888;4.746;2023-12-22T10:23:38;322.30;;;300.65;;
21569;SDS011;57598;50.888;4.746;2023-12-22T10:26:06;304.42;;;285.08;;
21569;SDS011;57598;50.888;4.746;2023-12-22T10:28:33;312.70;;;292.88;;
21569;SDS011;57598;50.888;4.746;2023-12-22T10:31:00;304.95;;;286.85;;
21569;SDS011;57598;50.888;4.746;2023-12-22T10:33:31;280.45;;;263.55;;
21569;SDS011;57598;50.888;4.746;2023-12-22T10:35:59;248.88;;;233.07;;
21569;SDS011;57598;50.888;4.746;2023-12-22T10:38:28;230.52;;;215.55;;
21569;SDS011;57598;50.888;4.746;2023-12-22T10:40:59;206.07;;;192.48;;
21569;SDS011;57598;50.888;4.746;2023-12-22T10:43:27;184.90;;;172.25;;
21569;SDS011;57598;50.888;4.746;2023-12-22T10:45:54;159.68;;;147.98;;
21569;SDS011;57598;50.888;4.746;2023-12-22T10:48:23;158.00;;;146.05;;
21569;SDS011;57598;50.888;4.746;2023-12-22T10:50:50;153.10;;;141.30;;
21569;SDS011;57598;50.888;4.746;2023-12-22T10:53:17;157.20;;;145.32;;
21569;SDS011;57598;50.888;4.746;2023-12-22T10:55:48;158.23;;;146.77;;
21569;SDS011;57598;50.888;4.746;2023-12-22T10:58:15;146.80;;;135.50;;
21569;SDS011;57598;50.888;4.746;2023-12-22T11:00:44;136.32;;;125.82;;
21569;SDS011;57598;50.888;4.746;2023-12-22T11:03:12;135.40;;;124.80;;
21569;SDS011;57598;50.888;4.746;2023-12-22T11:05:40;128.40;;;118.63;;
21569;SDS011;57598;50.888;4.746;2023-12-22T11:08:09;128.15;;;118.32;;
21569;SDS011;57598;50.888;4.746;2023-12-22T11:10:38;120.63;;;111.22;;
21569;SDS011;57598;50.888;4.746;2023-12-22T11:13:09;117.35;;;107.82;;
21569;SDS011;57598;50.888;4.746;2023-12-22T11:15:37;104.43;;;95.82;;
21569;SDS011;57598;50.888;4.746;2023-12-22T11:18:05;101.05;;;92.65;;
21569;SDS011;57598;50.888;4.746;2023-12-22T11:20:32;104.15;;;95.75;;
21569;SDS011;57598;50.888;4.746;2023-12-22T11:23:00;104.28;;;95.78;;
21569;SDS011;57598;50.888;4.746;2023-12-22T11:25:27;102.88;;;94.40;;
21569;SDS011;57598;50.888;4.746;2023-12-22T11:27:55;100.40;;;91.88;;
21569;SDS011;57598;50.888;4.746;2023-12-22T11:30:24;100.32;;;92.03;;
21569;SDS011;57598;50.888;4.746;2023-12-22T11:32:52;97.97;;;89.82;;
21569;SDS011;57598;50.888;4.746;2023-12-22T11:35:21;113.55;;;104.30;;
21569;SDS011;57598;50.888;4.746;2023-12-22T11:37:48;133.75;;;123.07;;
21569;SDS011;57598;50.888;4.746;2023-12-22T11:40:16;174.38;;;162.13;;
21569;SDS011;57598;50.888;4.746;2023-12-22T11:42:45;181.40;;;168.50;;
21569;SDS011;57598;50.888;4.746;2023-12-22T11:45:12;172.75;;;160.45;;
21569;SDS011;57598;50.888;4.746;2023-12-22T11:47:43;153.73;;;142.63;;
21569;SDS011;57598;50.888;4.746;2023-12-22T11:50:10;159.15;;;147.50;;
21569;SDS011;57598;50.888;4.746;2023-12-22T11:52:37;147.73;;;136.63;;
21569;SDS011;57598;50.888;4.746;2023-12-22T11:55:05;137.27;;;126.43;;
21569;SDS011;57598;50.888;4.746;2023-12-22T11:57:33;123.97;;;113.97;;
21569;SDS011;57598;50.888;4.746;2023-12-22T12:00:01;123.68;;;113.78;;
21569;SDS011;57598;50.888;4.746;2023-12-22T12:02:31;123.25;;;113.32;;
21569;SDS011;57598;50.888;4.746;2023-12-22T12:05:00;122.40;;;112.70;;
21569;SDS011;57598;50.888;4.746;2023-12-22T12:07:37;117.28;;;107.88;;
21569;SDS011;57598;50.888;4.746;2023-12-22T12:10:04;113.80;;;104.38;;
21569;SDS011;57598;50.888;4.746;2023-12-22T12:12:32;118.57;;;109.07;;
21569;SDS011;57598;50.888;4.746;2023-12-22T12:15:02;113.30;;;103.72;;
21569;SDS011;57598;50.888;4.746;2023-12-22T12:17:33;119.22;;;108.93;;
21569;SDS011;57598;50.888;4.746;2023-12-22T12:20:03;116.55;;;106.35;;
21569;SDS011;57598;50.888;4.746;2023-12-22T12:22:31;120.03;;;110.13;;
21569;SDS011;57598;50.888;4.746;2023-12-22T12:24:59;109.97;;;100.57;;
21569;SDS011;57598;50.888;4.746;2023-12-22T12:27:27;110.65;;;100.05;;
21569;SDS011;57598;50.888;4.746;2023-12-22T12:29:54;107.30;;;98.03;;
21569;SDS011;57598;50.888;4.746;2023-12-22T12:32:22;109.53;;;100.30;;
21569;SDS011;57598;50.888;4.746;2023-12-22T12:34:50;114.75;;;105.30;;
21569;SDS011;57598;50.888;4.746;2023-12-22T12:37:19;107.93;;;98.75;;
21569;SDS011;57598;50.888;4.746;2023-12-22T12:39:48;107.65;;;98.85;;
21569;SDS011;57598;50.888;4.746;2023-12-22T12:42:18;110.90;;;102.20;;
21569;SDS011;57598;50.888;4.746;2023-12-22T12:44:47;103.32;;;95.00;;
21569;SDS011;57598;50.888;4.746;2023-12-22T12:47:15;84.30;;;77.40;;
21569;SDS011;57598;50.888;4.746;2023-12-22T12:49:43;82.63;;;75.63;;
21569;SDS011;57598;50.888;4.746;2023-12-22T12:52:13;79.50;;;73.38;;
21569;SDS011;57598;50.888;4.746;2023-12-22T12:54:42;77.37;;;71.47;;
21569;SDS011;57598;50.888;4.746;2023-12-22T12:57:13;75.45;;;69.40;;
21569;SDS011;57598;50.888;4.746;2023-12-22T12:59:43;78.65;;;72.68;;
21569;SDS011;57598;50.888;4.746;2023-12-22T13:02:11;76.10;;;69.73;;
21569;SDS011;57598;50.888;4.746;2023-12-22T13:04:38;80.47;;;74.10;;
21569;SDS011;57598;50.888;4.746;2023-12-22T13:07:05;74.82;;;68.90;;
21569;SDS011;57598;50.888;4.746;2023-12-22T13:09:34;79.38;;;73.25;;
21569;SDS011;57598;50.888;4.746;2023-12-22T13:12:03;80.05;;;73.18;;
21569;SDS011;57598;50.888;4.746;2023-12-22T13:14:30;78.28;;;72.00;;
21569;SDS011;57598;50.888;4.746;2023-12-22T13:16:58;79.93;;;73.63;;
21569;SDS011;57598;50.888;4.746;2023-12-22T13:19:25;77.65;;;71.47;;
21569;SDS011;57598;50.888;4.746;2023-12-22T13:21:53;76.88;;;70.47;;
21569;SDS011;57598;50.888;4.746;2023-12-22T13:24:20;79.00;;;72.70;;
21569;SDS011;57598;50.888;4.746;2023-12-22T13:26:58;73.30;;;67.32;;
21569;SDS011;57598;50.888;4.746;2023-12-22T13:29:27;75.60;;;69.80;;
21569;SDS011;57598;50.888;4.746;2023-12-22T13:31:54;72.75;;;67.25;;
21569;SDS011;57598;50.888;4.746;2023-12-22T13:34:22;73.20;;;67.75;;
21569;SDS011;57598;50.888;4.746;2023-12-22T13:36:50;75.00;;;69.20;;
21569;SDS011;57598;50.888;4.746;2023-12-22T13:39:17;71.70;;;66.45;;
21569;SDS011;57598;50.888;4.746;2023-12-22T13:41:45;68.32;;;63.22;;
21569;SDS011;57598;50.888;4.746;2023-12-22T13:44:13;68.18;;;63.15;;
21569;SDS011;57598;50.888;4.746;2023-12-22T13:46:42;70.72;;;65.43;;
21569;SDS011;57598;50.888;4.746;2023-12-22T13:49:11;70.28;;;65.18;;
21569;SDS011;57598;50.888;4.746;2023-12-22T13:51:42;74.32;;;68.40;;
21569;SDS011;57598;50.888;4.746;2023-12-22T13:54:09;72.88;;;67.47;;
21569;SDS011;57598;50.888;4.746;2023-12-22T13:56:37;72.63;;;67.25;;
21569;SDS011;57598;50.888;4.746;2023-12-22T13:59:07;74.10;;;68.28;;
21569;SDS011;57598;50.888;4.746;2023-12-22T14:01:34;74.10;;;68.50;;
21569;SDS011;57598;50.888;4.746;2023-12-22T14:04:04;74.90;;;69.22;;
21569;SDS011;57598;50.888;4.746;2023-12-22T14:06:33;76.63;;;70.72;;
21569;SDS011;57598;50.888;4.746;2023-12-22T14:09:00;75.15;;;69.28;;
21569;SDS011;57598;50.888;4.746;2023-12-22T14:11:28;75.57;;;69.57;;
21569;SDS011;57598;50.888;4.746;2023-12-22T14:13:55;75.32;;;68.95;;
21569;SDS011;57598;50.888;4.746;2023-12-22T14:16:22;71.32;;;65.63;;